createdAt,value
2016-05-20T00:00:15.691Z,0
2016-05-20T00:01:15.554Z,0
2016-05-20T00:02:15.696Z,0
2016-05-20T00:03:15.684Z,0
2016-05-20T00:04:15.701Z,0
2016-05-20T00:05:15.689Z,0
2016-05-20T00:06:15.707Z,0
2016-05-20T00:07:15.695Z,0
2016-05-20T00:08:15.541Z,0
2016-05-20T00:09:15.715Z,0
2016-05-20T00:10:15.687Z,0
2016-05-20T00:11:15.689Z,0
2016-05-20T00:12:15.692Z,0
2016-05-20T00:13:15.694Z,0
2016-05-20T00:14:15.526Z,0
2016-05-20T00:15:15.716Z,0
2016-05-20T00:16:15.688Z,0
2016-05-20T00:17:15.691Z,0
2016-05-20T00:18:15.677Z,0
2016-05-20T00:19:15.399Z,0
2016-05-20T00:20:15.699Z,0
2016-05-20T00:21:15.685Z,0
2016-05-20T00:22:15.563Z,0
2016-05-20T00:23:15.691Z,0
2016-05-20T00:24:15.724Z,0
2016-05-20T00:25:15.696Z,0
2016-05-20T00:26:15.682Z,0
2016-05-20T00:27:15.670Z,0
2016-05-20T00:28:15.688Z,0
2016-05-20T00:29:15.707Z,0
2016-05-20T00:30:15.538Z,0
2016-05-20T00:31:15.712Z,0
2016-05-20T00:32:15.543Z,0
2016-05-20T00:33:15.546Z,0
2016-05-20T00:34:15.690Z,0
2016-05-20T00:35:15.692Z,0
2016-05-20T00:36:15.382Z,0
2016-05-20T00:37:15.540Z,0
2016-05-20T00:38:15.684Z,0
2016-05-20T00:39:15.562Z,0
2016-05-20T00:40:15.533Z,0
2016-05-20T00:41:15.692Z,0
2016-05-20T00:42:15.694Z,0
2016-05-20T00:43:15.525Z,0
2016-05-20T00:44:15.685Z,0
2016-05-20T00:45:15.672Z,0
2016-05-20T00:46:15.674Z,0
2016-05-20T00:47:15.536Z,0
2016-05-20T00:48:15.524Z,0
2016-05-20T00:49:15.527Z,0
2016-05-20T00:50:15.685Z,0
2016-05-20T00:51:15.672Z,0
2016-05-20T00:52:15.706Z,0
2016-05-20T00:53:15.677Z,0
2016-05-20T00:54:15.821Z,0
2016-05-20T00:55:15.683Z,0
2016-05-20T00:56:15.513Z,0
2016-05-20T00:57:15.532Z,0
2016-05-20T00:58:15.691Z,0
2016-05-20T00:59:15.679Z,0
2016-05-20T01:00:15.681Z,0
2016-05-20T01:01:15.684Z,0
2016-05-20T01:02:15.530Z,0
2016-05-20T01:03:15.674Z,0
2016-05-20T01:04:15.676Z,0
2016-05-20T01:05:15.679Z,0
2016-05-20T01:06:15.681Z,0
2016-05-20T01:07:15.918Z,0
2016-05-20T01:08:15.765Z,0
2016-05-20T01:09:15.249Z,0
2016-05-20T01:10:15.629Z,0
2016-05-20T01:11:15.725Z,0
2016-05-20T01:12:15.681Z,0
2016-05-20T01:13:15.717Z,0
2016-05-20T01:14:15.686Z,0
2016-05-20T01:15:15.674Z,0
2016-05-20T01:16:15.377Z,0
2016-05-20T01:17:15.523Z,0
2016-05-20T01:18:15.683Z,0
2016-05-20T01:19:15.669Z,0
2016-05-20T01:20:15.544Z,0
2016-05-20T01:21:15.375Z,0
2016-05-20T01:22:15.518Z,0
2016-05-20T01:23:15.711Z,0
2016-05-20T01:24:15.571Z,0
2016-05-20T01:25:15.666Z,0
2016-05-20T01:26:15.513Z,0
2016-05-20T01:27:15.516Z,0
2016-05-20T01:28:15.519Z,0
2016-05-20T01:29:15.522Z,0
2016-05-20T01:30:15.509Z,0
2016-05-20T01:31:15.512Z,0
2016-05-20T01:32:15.671Z,0
2016-05-20T01:33:15.517Z,0
2016-05-20T01:34:15.660Z,0
2016-05-20T01:35:15.663Z,0
2016-05-20T01:36:15.681Z,0
2016-05-20T01:37:15.668Z,0
2016-05-20T01:38:15.515Z,0
2016-05-20T01:39:15.970Z,0
2016-05-20T01:40:15.364Z,0
2016-05-20T01:41:15.663Z,0
2016-05-20T01:42:15.682Z,0
2016-05-20T01:43:15.670Z,0
2016-05-20T01:44:15.671Z,0
2016-05-20T01:45:15.518Z,0
2016-05-20T01:46:15.520Z,0
2016-05-20T01:47:15.523Z,0
2016-05-20T01:48:15.667Z,0
2016-05-20T01:49:15.669Z,0
2016-05-20T01:50:15.688Z,0
2016-05-20T01:51:15.502Z,0
2016-05-20T01:52:15.505Z,0
2016-05-20T01:53:15.680Z,0
2016-05-20T01:54:16.041Z,0
2016-05-20T01:55:15.669Z,0
2016-05-20T01:56:15.657Z,0
2016-05-20T01:57:15.363Z,0
2016-05-20T01:58:15.662Z,0
2016-05-20T01:59:15.665Z,0
2016-05-20T02:00:15.668Z,0
2016-05-20T02:01:15.514Z,0
2016-05-20T02:02:15.516Z,0
2016-05-20T02:03:15.519Z,0
2016-05-20T02:04:15.506Z,0
2016-05-20T02:05:15.665Z,0
2016-05-20T02:06:15.496Z,0
2016-05-20T02:07:15.670Z,0
2016-05-20T02:08:15.673Z,0
2016-05-20T02:09:15.692Z,0
2016-05-20T02:10:15.351Z,0
2016-05-20T02:11:15.495Z,0
2016-05-20T02:12:15.654Z,0
2016-05-20T02:13:15.671Z,0
2016-05-20T02:14:15.674Z,0
2016-05-20T02:15:15.676Z,0
2016-05-20T02:16:15.663Z,0
2016-05-20T02:17:15.495Z,0
2016-05-20T02:18:15.513Z,0
2016-05-20T02:19:15.641Z,0
2016-05-20T02:20:15.659Z,0
2016-05-20T02:21:15.661Z,0
2016-05-20T02:22:15.336Z,0
2016-05-20T02:23:15.651Z,0
2016-05-20T02:24:15.592Z,0
2016-05-20T02:25:15.657Z,0
2016-05-20T02:26:15.660Z,0
2016-05-20T02:27:15.663Z,0
2016-05-20T02:28:15.665Z,0
2016-05-20T02:29:15.652Z,0
2016-05-20T02:30:15.638Z,0
2016-05-20T02:31:15.501Z,0
2016-05-20T02:32:15.363Z,0
2016-05-20T02:33:15.506Z,0
2016-05-20T02:34:15.649Z,0
2016-05-20T02:35:15.667Z,0
2016-05-20T02:36:15.514Z,0
2016-05-20T02:37:15.767Z,0
2016-05-20T02:38:15.645Z,0
2016-05-20T02:39:15.585Z,0
2016-05-20T02:40:15.557Z,0
2016-05-20T02:41:15.246Z,0
2016-05-20T02:42:15.562Z,0
2016-05-20T02:43:15.643Z,0
2016-05-20T02:44:15.536Z,0
2016-05-20T02:45:15.507Z,0
2016-05-20T02:46:15.556Z,0
2016-05-20T02:47:15.637Z,0
2016-05-20T02:48:15.500Z,0
2016-05-20T02:49:15.643Z,0
2016-05-20T02:50:15.645Z,0
2016-05-20T02:51:15.648Z,0
2016-05-20T02:52:15.651Z,0
2016-05-20T02:53:15.623Z,0
2016-05-20T02:54:15.485Z,0
2016-05-20T02:55:15.628Z,0
2016-05-20T02:56:15.491Z,0
2016-05-20T02:57:15.664Z,0
2016-05-20T02:58:15.496Z,0
2016-05-20T02:59:15.638Z,0
2016-05-20T03:00:15.641Z,0
2016-05-20T03:01:15.488Z,0
2016-05-20T03:02:15.647Z,0
2016-05-20T03:03:15.322Z,0
2016-05-20T03:04:15.636Z,0
2016-05-20T03:05:15.640Z,0
2016-05-20T03:06:15.485Z,0
2016-05-20T03:07:15.473Z,0
2016-05-20T03:08:15.632Z,0
2016-05-20T03:09:16.259Z,0
2016-05-20T03:10:15.637Z,0
2016-05-20T03:11:15.624Z,0
2016-05-20T03:12:15.486Z,0
2016-05-20T03:13:15.629Z,0
2016-05-20T03:14:15.647Z,0
2016-05-20T03:15:15.634Z,0
2016-05-20T03:16:15.482Z,0
2016-05-20T03:17:15.484Z,0
2016-05-20T03:18:15.486Z,0
2016-05-20T03:19:15.631Z,0
2016-05-20T03:20:15.461Z,0
2016-05-20T03:21:15.619Z,0
2016-05-20T03:22:15.622Z,0
2016-05-20T03:23:15.625Z,0
2016-05-20T03:24:15.690Z,0
2016-05-20T03:25:15.161Z,0
2016-05-20T03:26:15.603Z,0
2016-05-20T03:27:15.619Z,0
2016-05-20T03:28:15.622Z,0
2016-05-20T03:29:15.625Z,0
2016-05-20T03:30:15.472Z,0
2016-05-20T03:31:15.475Z,0
2016-05-20T03:32:15.633Z,0
2016-05-20T03:33:15.480Z,0
2016-05-20T03:34:15.498Z,5
2016-05-20T03:35:15.470Z,5
2016-05-20T03:36:15.629Z,5
2016-05-20T03:37:15.615Z,5
2016-05-20T03:38:15.618Z,5
2016-05-20T03:39:15.559Z,5
2016-05-20T03:40:15.312Z,5
2016-05-20T03:41:15.611Z,5
2016-05-20T03:42:15.598Z,5
2016-05-20T03:43:15.617Z,10
2016-05-20T03:44:15.463Z,10
2016-05-20T03:45:15.622Z,10
2016-05-20T03:46:15.468Z,10
2016-05-20T03:47:15.595Z,10
2016-05-20T03:48:15.598Z,15
2016-05-20T03:49:15.288Z,15
2016-05-20T03:50:15.603Z,15
2016-05-20T03:51:15.622Z,15
2016-05-20T03:52:15.625Z,15
2016-05-20T03:53:15.597Z,20
2016-05-20T03:54:15.678Z,20
2016-05-20T03:55:15.664Z,20
2016-05-20T03:56:15.464Z,20
2016-05-20T03:57:15.467Z,25
2016-05-20T03:58:15.453Z,30
2016-05-20T03:59:15.316Z,35
2016-05-20T04:00:15.443Z,40
2016-05-20T04:01:15.602Z,40
2016-05-20T04:02:15.449Z,50
2016-05-20T04:03:15.608Z,55
2016-05-20T04:04:15.610Z,60
2016-05-20T04:05:15.441Z,60
2016-05-20T04:06:15.600Z,65
2016-05-20T04:07:15.603Z,70
2016-05-20T04:08:15.293Z,70
2016-05-20T04:09:16.061Z,70
2016-05-20T04:10:15.611Z,70
2016-05-20T04:11:15.613Z,80
2016-05-20T04:12:15.648Z,80
2016-05-20T04:13:15.634Z,85
2016-05-20T04:14:15.309Z,90
2016-05-20T04:15:15.593Z,95
2016-05-20T04:16:15.627Z,100
2016-05-20T04:17:15.599Z,105
2016-05-20T04:18:15.601Z,105
2016-05-20T04:19:15.604Z,105
2016-05-20T04:20:15.607Z,120
2016-05-20T04:21:15.609Z,125
2016-05-20T04:22:15.612Z,120
2016-05-20T04:23:15.614Z,95
2016-05-20T04:24:15.633Z,75
2016-05-20T04:25:15.292Z,70
2016-05-20T04:26:15.607Z,75
2016-05-20T04:27:15.438Z,80
2016-05-20T04:28:15.612Z,100
2016-05-20T04:29:15.443Z,115
2016-05-20T04:30:15.619Z,135
2016-05-20T04:31:15.589Z,145
2016-05-20T04:32:15.295Z,160
2016-05-20T04:33:15.454Z,160
2016-05-20T04:34:15.613Z,170
2016-05-20T04:35:15.616Z,180
2016-05-20T04:36:15.462Z,190
2016-05-20T04:37:15.621Z,205
2016-05-20T04:38:15.592Z,220
2016-05-20T04:39:15.611Z,220
2016-05-20T04:40:15.521Z,225
2016-05-20T04:41:15.460Z,240
2016-05-20T04:42:15.619Z,250
2016-05-20T04:43:15.621Z,245
2016-05-20T04:44:15.609Z,255
2016-05-20T04:45:15.455Z,260
2016-05-20T04:46:15.614Z,260
2016-05-20T04:47:15.460Z,265
2016-05-20T04:48:15.634Z,275
2016-05-20T04:49:15.637Z,280
2016-05-20T04:50:15.468Z,290
2016-05-20T04:51:15.455Z,300
2016-05-20T04:52:15.615Z,305
2016-05-20T04:53:15.461Z,325
2016-05-20T04:54:16.276Z,325
2016-05-20T04:55:15.639Z,300
2016-05-20T04:56:15.625Z,270
2016-05-20T04:57:15.627Z,280
2016-05-20T04:58:15.646Z,300
2016-05-20T04:59:15.664Z,280
2016-05-20T05:00:15.636Z,260
2016-05-20T05:01:15.669Z,280
2016-05-20T05:02:15.642Z,260
2016-05-20T05:03:15.331Z,225
2016-05-20T05:04:15.646Z,300
2016-05-20T05:05:15.650Z,310
2016-05-20T05:06:15.340Z,275
2016-05-20T05:07:15.671Z,190
2016-05-20T05:08:15.501Z,240
2016-05-20T05:09:15.676Z,255
2016-05-20T05:10:15.679Z,250
2016-05-20T05:11:15.665Z,235
2016-05-20T05:12:15.684Z,250
2016-05-20T05:13:15.670Z,240
2016-05-20T05:14:15.673Z,270
2016-05-20T05:15:15.676Z,280
2016-05-20T05:16:15.523Z,285
2016-05-20T05:17:15.666Z,215
2016-05-20T05:18:15.684Z,185
2016-05-20T05:19:15.531Z,150
2016-05-20T05:20:15.706Z,225
2016-05-20T05:21:15.537Z,220
2016-05-20T05:22:15.711Z,190
2016-05-20T05:23:15.713Z,175
2016-05-20T05:24:15.576Z,180
2016-05-20T05:25:15.891Z,205
2016-05-20T05:26:15.721Z,255
2016-05-20T05:27:15.583Z,310
2016-05-20T05:28:15.570Z,350
2016-05-20T05:29:15.573Z,425
2016-05-20T05:30:15.717Z,515
2016-05-20T05:31:15.735Z,440
2016-05-20T05:32:15.581Z,310
2016-05-20T05:33:15.725Z,170
2016-05-20T05:34:15.744Z,165
2016-05-20T05:35:15.761Z,155
2016-05-20T05:36:15.749Z,155
2016-05-20T05:37:15.766Z,155
2016-05-20T05:38:15.785Z,160
2016-05-20T05:39:15.757Z,175
2016-05-20T05:40:16.102Z,190
2016-05-20T05:41:15.763Z,210
2016-05-20T05:42:15.624Z,210
2016-05-20T05:43:15.782Z,170
2016-05-20T05:44:15.786Z,170
2016-05-20T05:45:15.615Z,210
2016-05-20T05:46:15.791Z,245
2016-05-20T05:47:15.778Z,245
2016-05-20T05:48:15.484Z,270
2016-05-20T05:49:15.486Z,320
2016-05-20T05:50:15.802Z,395
2016-05-20T05:51:15.789Z,440
2016-05-20T05:52:15.495Z,465
2016-05-20T05:53:15.809Z,485
2016-05-20T05:54:15.812Z,515
2016-05-20T05:55:16.097Z,535
2016-05-20T05:56:15.661Z,545
2016-05-20T05:57:15.837Z,575
2016-05-20T05:58:15.823Z,600
2016-05-20T05:59:15.714Z,635
2016-05-20T06:00:15.886Z,660
2016-05-20T06:01:15.777Z,635
2016-05-20T06:02:15.856Z,660
2016-05-20T06:03:16.028Z,650
2016-05-20T06:04:16.082Z,655
2016-05-20T06:05:16.085Z,660
2016-05-20T06:06:16.120Z,670
2016-05-20T06:07:15.983Z,705
2016-05-20T06:08:16.158Z,710
2016-05-20T06:09:16.190Z,705
2016-05-20T06:10:16.385Z,720
2016-05-20T06:11:16.049Z,720
2016-05-20T06:12:16.215Z,750
2016-05-20T06:13:16.238Z,765
2016-05-20T06:14:16.089Z,750
2016-05-20T06:15:16.235Z,760
2016-05-20T06:16:16.254Z,755
2016-05-20T06:17:16.119Z,745
2016-05-20T06:18:16.280Z,765
2016-05-20T06:19:16.113Z,785
2016-05-20T06:20:16.271Z,780
2016-05-20T06:21:16.136Z,785
2016-05-20T06:22:16.153Z,805
2016-05-20T06:23:16.158Z,800
2016-05-20T06:24:16.442Z,825
2016-05-20T06:25:16.960Z,840
2016-05-20T06:26:16.308Z,830
2016-05-20T06:27:16.326Z,805
2016-05-20T06:28:16.329Z,820
2016-05-20T06:29:16.036Z,815
2016-05-20T06:30:16.350Z,820
2016-05-20T06:31:16.197Z,850
2016-05-20T06:32:16.372Z,865
2016-05-20T06:33:16.062Z,840
2016-05-20T06:34:16.064Z,840
2016-05-20T06:35:16.395Z,865
2016-05-20T06:36:16.398Z,865
2016-05-20T06:37:16.089Z,870
2016-05-20T06:38:16.419Z,865
2016-05-20T06:39:16.266Z,870
2016-05-20T06:40:17.191Z,910
2016-05-20T06:41:16.443Z,930
2016-05-20T06:42:16.445Z,930
2016-05-20T06:43:16.292Z,895
2016-05-20T06:44:16.466Z,870
2016-05-20T06:45:16.157Z,865
2016-05-20T06:46:16.456Z,880
2016-05-20T06:47:16.474Z,975
2016-05-20T06:48:16.337Z,950
2016-05-20T06:49:16.339Z,940
2016-05-20T06:50:16.513Z,925
2016-05-20T06:51:16.376Z,910
2016-05-20T06:52:16.535Z,955
2016-05-20T06:53:16.396Z,925
2016-05-20T06:54:16.228Z,925
2016-05-20T06:55:16.793Z,965
2016-05-20T06:56:16.249Z,985
2016-05-20T06:57:16.579Z,985
2016-05-20T06:58:16.582Z,1020
2016-05-20T06:59:16.570Z,990
2016-05-20T07:00:16.275Z,940
2016-05-20T07:01:16.590Z,995
2016-05-20T07:02:16.609Z,1010
2016-05-20T07:03:16.627Z,1030
2016-05-20T07:04:16.333Z,1065
2016-05-20T07:05:16.491Z,1010
2016-05-20T07:06:16.650Z,1030
2016-05-20T07:07:16.653Z,1070
2016-05-20T07:08:16.672Z,1085
2016-05-20T07:09:16.674Z,1070
2016-05-20T07:10:16.864Z,1210
2016-05-20T07:11:16.711Z,1255
2016-05-20T07:12:16.730Z,1155
2016-05-20T07:13:16.716Z,1220
2016-05-20T07:14:16.735Z,1175
2016-05-20T07:15:16.597Z,1145
2016-05-20T07:16:16.741Z,1215
2016-05-20T07:17:16.977Z,1155
2016-05-20T07:18:16.464Z,1150
2016-05-20T07:19:16.780Z,1255
2016-05-20T07:20:16.641Z,1225
2016-05-20T07:21:16.800Z,1215
2016-05-20T07:22:16.803Z,1165
2016-05-20T07:23:16.821Z,1250
2016-05-20T07:24:16.668Z,930
2016-05-20T07:25:17.592Z,855
2016-05-20T07:26:16.845Z,1305
2016-05-20T07:27:28.676Z,1210
2016-05-20T07:28:16.710Z,1165
2016-05-20T07:29:16.900Z,1195
2016-05-20T07:30:16.903Z,1240
2016-05-20T07:31:16.765Z,1255
2016-05-20T07:32:16.596Z,1225
2016-05-20T07:33:16.754Z,1240
2016-05-20T07:34:16.929Z,1265
2016-05-20T07:35:16.807Z,1240
2016-05-20T07:36:16.997Z,1180
2016-05-20T07:37:16.811Z,1205
2016-05-20T07:38:17.033Z,1235
2016-05-20T07:39:16.989Z,1240
2016-05-20T07:40:16.758Z,1205
2016-05-20T07:41:16.838Z,1180
2016-05-20T07:42:17.013Z,1230
2016-05-20T07:43:17.047Z,1255
2016-05-20T07:44:17.050Z,1395
2016-05-20T07:45:17.052Z,1415
2016-05-20T07:46:17.071Z,1260
2016-05-20T07:47:16.917Z,1370
2016-05-20T07:48:17.076Z,1405
2016-05-20T07:49:17.094Z,1500
2016-05-20T07:50:17.129Z,1435
2016-05-20T07:51:17.100Z,1400
2016-05-20T07:52:18.838Z,1435
2016-05-20T07:53:16.823Z,1165
2016-05-20T07:54:17.139Z,1060
2016-05-20T07:55:17.548Z,1185
2016-05-20T07:56:17.004Z,1155
2016-05-20T07:57:17.178Z,1045
2016-05-20T07:58:17.056Z,940
2016-05-20T07:59:17.231Z,965
2016-05-20T08:00:17.484Z,1070
2016-05-20T08:01:17.439Z,1265
2016-05-20T08:02:16.926Z,1295
2016-05-20T08:03:17.257Z,1180
2016-05-20T08:04:17.119Z,855
2016-05-20T08:05:17.278Z,715
2016-05-20T08:06:17.156Z,705
2016-05-20T08:07:17.142Z,695
2016-05-20T08:08:17.145Z,705
2016-05-20T08:09:17.070Z,740
2016-05-20T08:10:18.354Z,760
2016-05-20T08:11:17.731Z,775
2016-05-20T08:12:17.406Z,810
2016-05-20T08:13:17.206Z,900
2016-05-20T08:14:17.380Z,320
2016-05-20T08:15:17.086Z,320
2016-05-20T08:16:17.402Z,905
2016-05-20T08:17:40.985Z,440
2016-05-20T08:18:17.407Z,235
2016-05-20T08:19:17.285Z,1050
2016-05-20T08:20:34.758Z,760
2016-05-20T08:21:17.290Z,395
2016-05-20T08:22:17.465Z,325
2016-05-20T08:23:17.482Z,1130
2016-05-20T08:24:17.501Z,1175
2016-05-20T08:25:34.113Z,1130
2016-05-20T08:26:17.976Z,945
2016-05-20T08:27:17.196Z,270
2016-05-20T08:28:17.371Z,225
2016-05-20T08:29:17.389Z,405
2016-05-20T08:30:20.454Z,1140
2016-05-20T08:31:17.551Z,1220
2016-05-20T08:32:17.537Z,400
2016-05-20T08:33:17.573Z,285
2016-05-20T08:34:17.903Z,355
2016-05-20T08:35:18.312Z,610
2016-05-20T08:36:17.580Z,335
2016-05-20T08:37:20.645Z,1090
2016-05-20T08:38:17.820Z,295
2016-05-20T08:39:17.650Z,200
2016-05-20T08:40:19.184Z,195
2016-05-20T08:41:20.125Z,205
2016-05-20T08:42:17.987Z,200
2016-05-20T08:43:17.662Z,190
2016-05-20T08:44:17.664Z,185
2016-05-20T08:45:17.666Z,555
2016-05-20T08:46:17.560Z,1140
2016-05-20T08:47:18.782Z,1125
2016-05-20T08:48:17.535Z,1095
2016-05-20T08:49:17.725Z,1070
2016-05-20T08:50:17.711Z,960
2016-05-20T08:51:17.714Z,1060
2016-05-20T08:52:17.577Z,855
2016-05-20T08:53:17.735Z,370
2016-05-20T08:54:17.769Z,500
2016-05-20T08:55:17.943Z,280
2016-05-20T08:56:17.775Z,255
2016-05-20T08:57:17.762Z,995
2016-05-20T08:58:18.936Z,1005
2016-05-20T08:59:17.627Z,350
2016-05-20T09:00:17.785Z,770
2016-05-20T09:01:17.788Z,445
2016-05-20T09:02:17.493Z,280
2016-05-20T09:03:18.512Z,265
2016-05-20T09:04:17.828Z,245
2016-05-20T09:05:17.862Z,230
2016-05-20T09:06:17.848Z,220
2016-05-20T09:07:17.881Z,200
2016-05-20T09:08:17.682Z,185
2016-05-20T09:09:17.934Z,175
2016-05-20T09:10:18.094Z,175
2016-05-20T09:11:17.722Z,170
2016-05-20T09:12:17.880Z,170
2016-05-20T09:13:17.898Z,170
2016-05-20T09:14:17.901Z,160
2016-05-20T09:15:17.903Z,155
2016-05-20T09:16:17.453Z,180
2016-05-20T09:17:17.925Z,175
2016-05-20T09:18:18.600Z,175
2016-05-20T09:19:17.962Z,200
2016-05-20T09:20:17.792Z,195
2016-05-20T09:21:17.795Z,185
2016-05-20T09:22:17.954Z,180
2016-05-20T09:23:20.207Z,170
2016-05-20T09:24:17.835Z,165
2016-05-20T09:25:18.290Z,160
2016-05-20T09:26:17.980Z,160
2016-05-20T09:27:17.842Z,160
2016-05-20T09:28:17.986Z,160
2016-05-20T09:29:17.848Z,165
2016-05-20T09:30:18.007Z,165
2016-05-20T09:31:18.041Z,160
2016-05-20T09:32:17.887Z,155
2016-05-20T09:33:17.734Z,155
2016-05-20T09:34:19.659Z,150
2016-05-20T09:35:18.082Z,150
2016-05-20T09:36:17.929Z,160
2016-05-20T09:37:17.759Z,165
2016-05-20T09:38:17.794Z,170
2016-05-20T09:39:17.765Z,185
2016-05-20T09:40:18.549Z,185
2016-05-20T09:41:18.083Z,180
2016-05-20T09:42:18.070Z,195
2016-05-20T09:43:18.104Z,190
2016-05-20T09:44:18.326Z,190
2016-05-20T09:45:17.781Z,190
2016-05-20T09:46:18.097Z,185
2016-05-20T09:47:17.974Z,180
2016-05-20T09:48:17.961Z,175
2016-05-20T09:49:18.620Z,165
2016-05-20T09:50:18.123Z,160
2016-05-20T09:51:20.079Z,170
2016-05-20T09:52:18.160Z,170
2016-05-20T09:53:17.975Z,165
2016-05-20T09:54:18.805Z,165
2016-05-20T09:55:18.402Z,160
2016-05-20T09:56:18.170Z,155
2016-05-20T09:57:18.174Z,145
2016-05-20T09:58:18.191Z,135
2016-05-20T09:59:19.756Z,125
2016-05-20T10:00:18.181Z,120
2016-05-20T10:01:18.043Z,125
2016-05-20T10:02:17.890Z,130
2016-05-20T10:03:18.033Z,130
2016-05-20T10:04:19.848Z,135
2016-05-20T10:05:18.054Z,135
2016-05-20T10:06:18.213Z,155
2016-05-20T10:07:18.232Z,160
2016-05-20T10:08:18.234Z,170
2016-05-20T10:09:20.628Z,160
2016-05-20T10:10:18.567Z,155
2016-05-20T10:11:18.086Z,150
2016-05-20T10:12:18.089Z,150
2016-05-20T10:13:18.091Z,155
2016-05-20T10:14:18.109Z,160
2016-05-20T10:15:18.253Z,165
2016-05-20T10:16:18.286Z,165
2016-05-20T10:17:18.274Z,170
2016-05-20T10:18:18.277Z,155
2016-05-20T10:19:18.122Z,155
2016-05-20T10:20:18.297Z,160
2016-05-20T10:21:18.128Z,165
2016-05-20T10:22:18.287Z,180
2016-05-20T10:23:17.977Z,165
2016-05-20T10:24:18.339Z,170
2016-05-20T10:25:18.186Z,175
2016-05-20T10:26:18.204Z,175
2016-05-20T10:27:17.957Z,170
2016-05-20T10:28:18.349Z,165
2016-05-20T10:29:18.181Z,180
2016-05-20T10:30:18.434Z,180
2016-05-20T10:31:18.358Z,180
2016-05-20T10:32:18.360Z,185
2016-05-20T10:33:18.348Z,190
2016-05-20T10:34:18.429Z,185
2016-05-20T10:35:18.354Z,175
2016-05-20T10:36:18.371Z,160
2016-05-20T10:37:18.374Z,155
2016-05-20T10:38:18.081Z,160
2016-05-20T10:39:18.426Z,160
2016-05-20T10:40:18.226Z,165
2016-05-20T10:41:18.089Z,165
2016-05-20T10:42:18.231Z,160
2016-05-20T10:43:18.266Z,160
2016-05-20T10:44:18.408Z,170
2016-05-20T10:45:18.256Z,165
2016-05-20T10:46:18.290Z,155
2016-05-20T10:47:18.417Z,140
2016-05-20T10:48:19.826Z,135
2016-05-20T10:49:18.282Z,135
2016-05-20T10:50:18.441Z,135
2016-05-20T10:51:18.302Z,135
2016-05-20T10:52:18.290Z,135
2016-05-20T10:53:18.496Z,130
2016-05-20T10:54:17.999Z,130
2016-05-20T10:55:18.704Z,125
2016-05-20T10:56:18.472Z,125
2016-05-20T10:57:18.460Z,125
2016-05-20T10:58:18.463Z,125
2016-05-20T10:59:18.653Z,125
2016-05-20T11:00:18.482Z,125
2016-05-20T11:01:18.407Z,125
2016-05-20T11:02:18.504Z,125
2016-05-20T11:03:18.554Z,130
2016-05-20T11:04:18.322Z,130
2016-05-20T11:05:18.496Z,130
2016-05-20T11:06:18.218Z,130
2016-05-20T11:07:18.502Z,130
2016-05-20T11:08:18.364Z,135
2016-05-20T11:09:18.523Z,135
2016-05-20T11:10:19.182Z,135
2016-05-20T11:11:18.685Z,135
2016-05-20T11:12:18.532Z,135
2016-05-20T11:13:18.534Z,135
2016-05-20T11:14:18.223Z,135
2016-05-20T11:15:18.445Z,135
2016-05-20T11:16:18.417Z,130
2016-05-20T11:17:20.623Z,130
2016-05-20T11:18:18.531Z,125
2016-05-20T11:19:19.097Z,120
2016-05-20T11:20:18.412Z,120
2016-05-20T11:21:18.586Z,115
2016-05-20T11:22:18.480Z,115
2016-05-20T11:23:18.310Z,115
2016-05-20T11:24:18.594Z,110
2016-05-20T11:25:18.628Z,110
2016-05-20T11:26:18.288Z,105
2016-05-20T11:27:18.618Z,105
2016-05-20T11:28:18.761Z,105
2016-05-20T11:29:18.296Z,105
2016-05-20T11:30:18.455Z,105
2016-05-20T11:31:18.614Z,100
2016-05-20T11:32:18.507Z,85
2016-05-20T11:33:18.369Z,100
2016-05-20T11:34:18.621Z,100
2016-05-20T11:35:18.624Z,95
2016-05-20T11:36:18.658Z,95
2016-05-20T11:37:18.645Z,100
2016-05-20T11:38:18.492Z,100
2016-05-20T11:39:18.650Z,105
2016-05-20T11:40:19.075Z,115
2016-05-20T11:41:18.500Z,110
2016-05-20T11:42:18.534Z,105
2016-05-20T11:43:18.520Z,100
2016-05-20T11:44:18.665Z,95
2016-05-20T11:45:18.698Z,95
2016-05-20T11:46:18.684Z,90
2016-05-20T11:47:18.516Z,90
2016-05-20T11:48:18.534Z,90
2016-05-20T11:49:18.678Z,90
2016-05-20T11:50:18.539Z,90
2016-05-20T11:51:18.715Z,95
2016-05-20T11:52:18.716Z,95
2016-05-20T11:53:18.703Z,95
2016-05-20T11:54:18.706Z,95
2016-05-20T11:55:18.256Z,95
2016-05-20T11:56:18.712Z,95
2016-05-20T11:57:18.746Z,95
2016-05-20T11:58:18.561Z,95
2016-05-20T11:59:18.611Z,95
2016-05-20T12:00:18.738Z,95
2016-05-20T12:01:18.444Z,95
2016-05-20T12:02:18.728Z,95
2016-05-20T12:03:18.434Z,95
2016-05-20T12:04:18.749Z,95
2016-05-20T12:05:18.705Z,95
2016-05-20T12:06:18.613Z,95
2016-05-20T12:07:18.741Z,95
2016-05-20T12:08:18.759Z,95
2016-05-20T12:09:18.779Z,95
2016-05-20T12:10:18.531Z,95
2016-05-20T12:11:18.612Z,95
2016-05-20T12:12:18.599Z,95
2016-05-20T12:13:18.774Z,90
2016-05-20T12:14:18.776Z,100
2016-05-20T12:15:18.794Z,105
2016-05-20T12:16:18.640Z,85
2016-05-20T12:17:18.815Z,100
2016-05-20T12:18:18.646Z,100
2016-05-20T12:19:18.805Z,100
2016-05-20T12:20:18.808Z,105
2016-05-20T12:21:18.810Z,105
2016-05-20T12:22:18.641Z,105
2016-05-20T12:23:18.519Z,110
2016-05-20T12:24:18.662Z,110
2016-05-20T12:25:19.103Z,110
2016-05-20T12:26:18.824Z,115
2016-05-20T12:27:18.686Z,125
2016-05-20T12:28:18.814Z,125
2016-05-20T12:29:18.691Z,130
2016-05-20T12:30:18.835Z,135
2016-05-20T12:31:18.838Z,135
2016-05-20T12:32:18.840Z,135
2016-05-20T12:33:18.858Z,135
2016-05-20T12:34:18.861Z,130
2016-05-20T12:35:19.099Z,125
2016-05-20T12:36:18.866Z,125
2016-05-20T12:37:18.557Z,120
2016-05-20T12:38:18.871Z,120
2016-05-20T12:39:18.875Z,120
2016-05-20T12:40:18.580Z,120
2016-05-20T12:41:18.723Z,120
2016-05-20T12:42:18.915Z,115
2016-05-20T12:43:18.901Z,115
2016-05-20T12:44:18.873Z,110
2016-05-20T12:45:18.890Z,110
2016-05-20T12:46:18.893Z,105
2016-05-20T12:47:18.770Z,105
2016-05-20T12:48:18.930Z,105
2016-05-20T12:49:18.729Z,110
2016-05-20T12:50:18.920Z,110
2016-05-20T12:51:18.923Z,110
2016-05-20T12:52:18.909Z,110
2016-05-20T12:53:18.928Z,110
2016-05-20T12:54:18.775Z,110
2016-05-20T12:55:18.778Z,110
2016-05-20T12:56:18.779Z,115
2016-05-20T12:57:18.954Z,115
2016-05-20T12:58:18.942Z,115
2016-05-20T12:59:18.928Z,115
2016-05-20T13:00:18.947Z,110
2016-05-20T13:01:18.808Z,110
2016-05-20T13:02:18.796Z,110
2016-05-20T13:03:18.971Z,105
2016-05-20T13:04:18.974Z,105
2016-05-20T13:05:18.960Z,105
2016-05-20T13:06:18.978Z,105
2016-05-20T13:07:18.825Z,105
2016-05-20T13:08:18.968Z,100
2016-05-20T13:09:18.986Z,100
2016-05-20T13:10:19.146Z,100
2016-05-20T13:11:18.992Z,100
2016-05-20T13:12:18.823Z,105
2016-05-20T13:13:18.841Z,105
2016-05-20T13:14:18.843Z,100
2016-05-20T13:15:18.862Z,100
2016-05-20T13:16:19.021Z,105
2016-05-20T13:17:18.851Z,105
2016-05-20T13:18:19.011Z,105
2016-05-20T13:19:19.014Z,105
2016-05-20T13:20:19.017Z,105
2016-05-20T13:21:19.034Z,100
2016-05-20T13:22:19.021Z,100
2016-05-20T13:23:18.884Z,100
2016-05-20T13:24:19.027Z,100
2016-05-20T13:25:18.872Z,100
2016-05-20T13:26:19.033Z,95
2016-05-20T13:27:19.035Z,95
2016-05-20T13:28:19.053Z,95
2016-05-20T13:29:18.916Z,95
2016-05-20T13:30:19.074Z,95
2016-05-20T13:31:18.905Z,95
2016-05-20T13:32:19.049Z,95
2016-05-20T13:33:19.066Z,90
2016-05-20T13:34:19.069Z,90
2016-05-20T13:35:19.072Z,90
2016-05-20T13:36:19.060Z,90
2016-05-20T13:37:18.921Z,90
2016-05-20T13:38:19.079Z,90
2016-05-20T13:39:19.068Z,90
2016-05-20T13:40:19.054Z,90
2016-05-20T13:41:18.931Z,90
2016-05-20T13:42:19.091Z,90
2016-05-20T13:43:19.109Z,90
2016-05-20T13:44:19.112Z,85
2016-05-20T13:45:19.115Z,85
2016-05-20T13:46:19.101Z,90
2016-05-20T13:47:19.104Z,90
2016-05-20T13:48:19.904Z,95
2016-05-20T13:49:19.109Z,90
2016-05-20T13:50:19.128Z,90
2016-05-20T13:51:19.130Z,85
2016-05-20T13:52:19.118Z,85
2016-05-20T13:53:18.980Z,85
2016-05-20T13:54:19.014Z,80
2016-05-20T13:55:19.781Z,80
2016-05-20T13:56:19.128Z,85
2016-05-20T13:57:19.131Z,85
2016-05-20T13:58:19.149Z,85
2016-05-20T13:59:18.996Z,85
2016-05-20T14:00:19.155Z,85
2016-05-20T14:01:19.016Z,90
2016-05-20T14:02:19.144Z,90